createdAt,value
2015-09-12T00:00:10.362Z,2.55
2015-09-12T00:00:22.800Z,2.48
2015-09-12T00:00:35.268Z,2.48
2015-09-12T00:00:47.659Z,2.62
2015-09-12T00:01:00.051Z,2.58
2015-09-12T00:01:12.457Z,2.55
2015-09-12T00:01:24.847Z,2.51
2015-09-12T00:01:37.238Z,2.49
2015-09-12T00:01:49.660Z,2.55
2015-09-12T00:02:02.053Z,2.48
2015-09-12T00:02:14.443Z,2.59
2015-09-12T00:02:26.849Z,2.65
2015-09-12T00:02:39.240Z,2.54
2015-09-12T00:02:51.662Z,2.52
2015-09-12T00:03:04.087Z,2.54
2015-09-12T00:03:16.493Z,2.58
2015-09-12T00:03:28.931Z,2.51
2015-09-12T00:03:41.337Z,2.55
2015-09-12T00:03:53.774Z,2.55
2015-09-12T00:04:06.213Z,2.66
2015-09-12T00:04:18.635Z,2.59
2015-09-12T00:04:31.057Z,2.55
2015-09-12T00:04:43.478Z,2.51
2015-09-12T00:04:55.932Z,2.6
2015-09-12T00:05:08.356Z,2.54
2015-09-12T00:05:20.778Z,2.51
2015-09-12T00:05:33.169Z,2.55
2015-09-12T00:05:44.872Z,2.59
2015-09-12T00:05:57.263Z,2.59
2015-09-12T00:06:09.670Z,2.59
2015-09-12T00:06:21.920Z,2.62
2015-09-12T00:06:34.326Z,2.58
2015-09-12T00:06:46.717Z,2.69
2015-09-12T00:06:59.123Z,2.58
2015-09-12T00:07:10.860Z,2.62
2015-09-12T00:07:23.267Z,2.69
2015-09-12T00:07:35.673Z,2.62
2015-09-12T00:07:48.079Z,2.7
2015-09-12T00:08:00.485Z,2.59
2015-09-12T00:08:12.877Z,2.63
2015-09-12T00:08:25.268Z,2.72
2015-09-12T00:08:37.690Z,2.67
2015-09-12T00:08:50.111Z,2.6
2015-09-12T00:09:02.502Z,2.63
2015-09-12T00:09:14.927Z,2.69
2015-09-12T00:09:27.333Z,2.69
2015-09-12T00:09:39.771Z,2.65
2015-09-12T00:09:52.208Z,2.72
2015-09-12T00:10:04.630Z,2.69
2015-09-12T00:10:17.022Z,2.7
2015-09-12T00:10:29.397Z,2.67
2015-09-12T00:10:41.787Z,2.63
2015-09-12T00:10:54.162Z,2.72
2015-09-12T00:11:06.553Z,2.69
2015-09-12T00:11:18.961Z,2.73
2015-09-12T00:11:31.352Z,2.7
2015-09-12T00:11:43.758Z,2.72
2015-09-12T00:11:56.149Z,2.73
2015-09-12T00:12:08.555Z,2.72
2015-09-12T00:12:20.979Z,2.7
2015-09-12T00:12:33.385Z,2.73
2015-09-12T00:12:45.807Z,2.7
2015-09-12T00:12:58.229Z,2.67
2015-09-12T00:13:10.635Z,2.7
2015-09-12T00:13:23.076Z,2.73
2015-09-12T00:13:35.513Z,2.8
2015-09-12T00:13:47.951Z,2.84
2015-09-12T00:14:00.388Z,2.8
2015-09-12T00:14:12.826Z,2.76
2015-09-12T00:14:25.280Z,2.7
2015-09-12T00:14:37.702Z,2.78
2015-09-12T00:14:50.139Z,2.87
2015-09-12T00:15:02.530Z,2.8
2015-09-12T00:15:14.936Z,2.81
2015-09-12T00:15:27.344Z,2.69
2015-09-12T00:15:39.735Z,2.81
2015-09-12T00:15:52.125Z,2.76
2015-09-12T00:16:04.532Z,2.84
2015-09-12T00:16:16.922Z,2.8
2015-09-12T00:16:29.331Z,2.9
2015-09-12T00:16:41.721Z,2.8
2015-09-12T00:16:54.127Z,2.8
2015-09-12T00:17:06.518Z,2.78
2015-09-12T00:17:18.924Z,2.8
2015-09-12T00:17:31.317Z,2.78
2015-09-12T00:17:43.708Z,2.84
2015-09-12T00:17:56.114Z,2.83
2015-09-12T00:18:08.520Z,2.81
2015-09-12T00:18:20.942Z,2.78
2015-09-12T00:18:33.366Z,2.87
2015-09-12T00:18:45.772Z,2.73
2015-09-12T00:18:58.178Z,2.76
2015-09-12T00:19:10.631Z,2.77
2015-09-12T00:19:23.053Z,2.84
2015-09-12T00:19:35.493Z,2.78
2015-09-12T00:19:47.915Z,2.81
2015-09-12T00:20:00.321Z,2.76
2015-09-12T00:20:12.712Z,2.84
2015-09-12T00:20:25.118Z,2.83
2015-09-12T00:20:37.510Z,2.84
2015-09-12T00:20:49.198Z,2.77
2015-09-12T00:21:01.604Z,2.8
2015-09-12T00:21:13.292Z,2.77
2015-09-12T00:21:25.698Z,2.84
2015-09-12T00:21:38.106Z,2.84
2015-09-12T00:21:50.512Z,2.83
2015-09-12T00:22:02.903Z,2.81
2015-09-12T00:22:15.294Z,2.87
2015-09-12T00:22:27.700Z,2.85
2015-09-12T00:22:40.108Z,2.84
2015-09-12T00:22:52.530Z,2.83
2015-09-12T00:23:04.936Z,2.76
2015-09-12T00:23:17.343Z,2.84
2015-09-12T00:23:29.749Z,2.85
2015-09-12T00:23:42.157Z,2.81
2015-09-12T00:23:54.595Z,2.9
2015-09-12T00:24:07.032Z,2.83
2015-09-12T00:24:19.454Z,2.83
2015-09-12T00:24:31.891Z,2.83
2015-09-12T00:24:44.315Z,2.84
2015-09-12T00:24:56.597Z,2.85
2015-09-12T00:25:09.018Z,2.81
2015-09-12T00:25:21.425Z,2.85
2015-09-12T00:25:33.831Z,2.91
2015-09-12T00:25:46.224Z,2.83
2015-09-12T00:25:58.630Z,2.88
2015-09-12T00:26:10.333Z,2.88
2015-09-12T00:26:22.724Z,2.87
2015-09-12T00:26:35.130Z,2.88
2015-09-12T00:26:47.538Z,2.85
2015-09-12T00:26:59.929Z,2.88
2015-09-12T00:27:12.335Z,2.95
2015-09-12T00:27:24.022Z,2.96
2015-09-12T00:27:36.444Z,2.88
2015-09-12T00:27:48.853Z,2.93
2015-09-12T00:28:01.259Z,2.95
2015-09-12T00:28:13.649Z,2.95
2015-09-12T00:28:26.056Z,2.88
2015-09-12T00:28:38.462Z,2.9
2015-09-12T00:28:50.886Z,2.91
2015-09-12T00:29:03.292Z,2.91
2015-09-12T00:29:15.698Z,2.88
2015-09-12T00:29:27.964Z,2.91
2015-09-12T00:29:40.401Z,2.91
2015-09-12T00:29:52.825Z,2.96
2015-09-12T00:30:05.247Z,2.93
2015-09-12T00:30:17.669Z,2.91
2015-09-12T00:30:30.107Z,2.95
2015-09-12T00:30:41.825Z,2.91
2015-09-12T00:30:54.264Z,2.96
2015-09-12T00:31:06.686Z,2.95
2015-09-12T00:31:19.123Z,2.91
2015-09-12T00:31:31.529Z,2.88
2015-09-12T00:31:43.936Z,2.93
2015-09-12T00:31:56.345Z,2.84
2015-09-12T00:32:08.736Z,2.88
2015-09-12T00:32:21.142Z,2.87
2015-09-12T00:32:33.548Z,2.9
2015-09-12T00:32:45.954Z,2.87
2015-09-12T00:32:58.347Z,2.88
2015-09-12T00:33:10.753Z,2.96
2015-09-12T00:33:23.159Z,2.93
2015-09-12T00:33:35.550Z,2.95
2015-09-12T00:33:47.956Z,2.91
2015-09-12T00:34:00.349Z,2.88
2015-09-12T00:34:12.755Z,2.95
2015-09-12T00:34:25.161Z,2.91
2015-09-12T00:34:37.583Z,2.96
2015-09-12T00:34:49.990Z,2.96
2015-09-12T00:35:02.398Z,2.91
2015-09-12T00:35:14.820Z,2.91
2015-09-12T00:35:27.226Z,2.96
2015-09-12T00:35:39.663Z,2.93
2015-09-12T00:35:52.085Z,2.98
2015-09-12T00:36:04.508Z,2.95
2015-09-12T00:36:16.946Z,2.96
2015-09-12T00:36:29.383Z,2.93
2015-09-12T00:36:41.821Z,2.96
2015-09-12T00:36:54.243Z,2.96
2015-09-12T00:37:06.683Z,2.98
2015-09-12T00:37:19.074Z,2.91
2015-09-12T00:37:31.480Z,2.91
2015-09-12T00:37:43.871Z,2.95
2015-09-12T00:37:56.277Z,3.01
2015-09-12T00:38:08.685Z,2.96
2015-09-12T00:38:21.091Z,2.95
2015-09-12T00:38:32.779Z,2.91
2015-09-12T00:38:45.185Z,2.91
2015-09-12T00:38:57.576Z,2.91
2015-09-12T00:39:10.109Z,2.93
2015-09-12T00:39:22.531Z,2.91
2015-09-12T00:39:34.937Z,2.96
2015-09-12T00:39:47.359Z,2.88
2015-09-12T00:39:59.765Z,2.9
2015-09-12T00:40:12.188Z,3.02
2015-09-12T00:40:24.594Z,2.96
2015-09-12T00:40:36.985Z,2.95
2015-09-12T00:40:49.391Z,2.91
2015-09-12T00:41:01.797Z,2.96
2015-09-12T00:41:14.191Z,2.96
2015-09-12T00:41:26.629Z,2.95
2015-09-12T00:41:39.035Z,2.98
2015-09-12T00:41:51.441Z,2.98
2015-09-12T00:42:03.847Z,2.9
2015-09-12T00:42:16.270Z,2.95
2015-09-12T00:42:28.692Z,2.9
2015-09-12T00:42:40.411Z,2.98
2015-09-12T00:42:52.848Z,2.95
2015-09-12T00:43:05.270Z,2.93
2015-09-12T00:43:17.710Z,2.93
2015-09-12T00:43:30.132Z,2.95
2015-09-12T00:43:42.569Z,2.95
2015-09-12T00:43:55.007Z,2.95
2015-09-12T00:44:07.413Z,2.93
2015-09-12T00:44:19.822Z,2.88
2015-09-12T00:44:32.213Z,2.93
2015-09-12T00:44:44.635Z,2.91
2015-09-12T00:44:57.025Z,2.91
2015-09-12T00:45:09.431Z,2.96
2015-09-12T00:45:21.824Z,2.98
2015-09-12T00:45:34.215Z,2.91
2015-09-12T00:45:46.621Z,2.98
2015-09-12T00:45:59.027Z,2.98
2015-09-12T00:46:11.418Z,2.96
2015-09-12T00:46:23.842Z,2.96
2015-09-12T00:46:36.264Z,2.99
2015-09-12T00:46:48.670Z,2.87
2015-09-12T00:47:01.076Z,2.93
2015-09-12T00:47:13.514Z,2.93
2015-09-12T00:47:25.937Z,2.9
2015-09-12T00:47:38.375Z,2.95
2015-09-12T00:47:50.797Z,3.01
2015-09-12T00:48:03.234Z,2.98
2015-09-12T00:48:15.672Z,2.88
2015-09-12T00:48:27.393Z,2.91
2015-09-12T00:48:39.814Z,2.96
2015-09-12T00:48:52.252Z,2.98
2015-09-12T00:49:04.643Z,2.93
2015-09-12T00:49:17.018Z,2.93
2015-09-12T00:49:29.409Z,2.96
2015-09-12T00:49:41.784Z,2.9
2015-09-12T00:49:54.175Z,2.96
2015-09-12T00:50:06.550Z,2.88
2015-09-12T00:50:18.956Z,2.91
2015-09-12T00:50:31.370Z,2.93
2015-09-12T00:50:43.761Z,2.91
2015-09-12T00:50:56.167Z,3.01
2015-09-12T00:51:08.589Z,2.96
2015-09-12T00:51:20.980Z,2.84
2015-09-12T00:51:33.388Z,2.95
2015-09-12T00:51:45.778Z,2.96
2015-09-12T00:51:58.200Z,2.91
2015-09-12T00:52:10.607Z,2.96
2015-09-12T00:52:23.015Z,3.06
2015-09-12T00:52:35.437Z,2.9
2015-09-12T00:52:47.843Z,2.91
2015-09-12T00:53:00.265Z,3.02
2015-09-12T00:53:12.702Z,2.9
2015-09-12T00:53:25.125Z,3.02
2015-09-12T00:53:37.547Z,2.96
2015-09-12T00:53:49.969Z,2.91
2015-09-12T00:54:02.422Z,2.96
2015-09-12T00:54:14.828Z,2.96
2015-09-12T00:54:27.269Z,2.9
2015-09-12T00:54:39.722Z,2.87
2015-09-12T00:54:52.113Z,2.95
2015-09-12T00:55:04.534Z,2.91
2015-09-12T00:55:16.941Z,2.9
2015-09-12T00:55:29.332Z,2.98
2015-09-12T00:55:41.739Z,3.05
2015-09-12T00:55:54.145Z,2.96
2015-09-12T00:56:06.535Z,3.03
2015-09-12T00:56:18.942Z,2.91
2015-09-12T00:56:31.335Z,2.9
2015-09-12T00:56:43.742Z,2.93
2015-09-12T00:56:56.148Z,2.93
2015-09-12T00:57:08.554Z,3.01
2015-09-12T00:57:20.945Z,2.95
2015-09-12T00:57:33.353Z,2.96
2015-09-12T00:57:45.744Z,2.9
2015-09-12T00:57:58.165Z,2.96
2015-09-12T00:58:10.572Z,2.9
2015-09-12T00:58:22.978Z,2.98
2015-09-12T00:58:35.401Z,2.95
2015-09-12T00:58:47.823Z,3.03
2015-09-12T00:59:00.260Z,2.93
2015-09-12T00:59:12.682Z,2.93
2015-09-12T00:59:25.104Z,2.96
2015-09-12T00:59:37.543Z,2.88
2015-09-12T00:59:49.981Z,2.96
2015-09-12T01:00:02.418Z,2.98
2015-09-12T01:00:14.684Z,2.98
2015-09-12T01:00:27.122Z,2.9
2015-09-12T01:00:39.545Z,2.88
2015-09-12T01:00:51.952Z,3.01
2015-09-12T01:01:04.342Z,2.9
2015-09-12T01:01:16.749Z,2.96
2015-09-12T01:01:29.139Z,2.93
2015-09-12T01:01:41.548Z,2.96
2015-09-12T01:01:53.955Z,2.93
2015-09-12T01:02:06.345Z,2.95
2015-09-12T01:02:18.752Z,2.87
2015-09-12T01:02:31.158Z,2.99
2015-09-12T01:02:43.566Z,2.88
2015-09-12T01:02:55.957Z,2.9
2015-09-12T01:03:08.363Z,2.95
2015-09-12T01:03:20.754Z,3.03
2015-09-12T01:03:33.160Z,2.87
2015-09-12T01:03:45.568Z,2.96
2015-09-12T01:03:57.974Z,2.98
2015-09-12T01:04:10.381Z,2.91
2015-09-12T01:04:22.787Z,2.93
2015-09-12T01:04:35.209Z,2.96
2015-09-12T01:04:47.632Z,2.9
2015-09-12T01:05:00.053Z,2.95
2015-09-12T01:05:12.475Z,2.95
2015-09-12T01:05:24.928Z,2.99
2015-09-12T01:05:37.350Z,2.93
2015-09-12T01:05:49.790Z,2.96
2015-09-12T01:06:02.227Z,2.93
2015-09-12T01:06:14.665Z,2.93
2015-09-12T01:06:27.055Z,3.01
2015-09-12T01:06:39.462Z,2.95
2015-09-12T01:06:51.151Z,2.96
2015-09-12T01:07:03.557Z,2.96
2015-09-12T01:07:15.948Z,2.93
2015-09-12T01:07:28.370Z,2.96
2015-09-12T01:07:40.776Z,2.96
2015-09-12T01:07:53.169Z,2.87
2015-09-12T01:08:05.575Z,2.96
2015-09-12T01:08:17.966Z,2.91
2015-09-12T01:08:30.372Z,2.93
2015-09-12T01:08:42.763Z,2.91
2015-09-12T01:08:55.171Z,2.91
2015-09-12T01:09:07.561Z,2.91
2015-09-12T01:09:19.968Z,2.95
2015-09-12T01:09:32.390Z,2.9
2015-09-12T01:09:44.796Z,2.91
2015-09-12T01:09:57.220Z,2.85
2015-09-12T01:10:09.626Z,2.96
2015-09-12T01:10:22.048Z,2.9
2015-09-12T01:10:34.485Z,2.93
2015-09-12T01:10:46.907Z,2.91
2015-09-12T01:10:59.331Z,2.9
2015-09-12T01:11:11.753Z,2.93
2015-09-12T01:11:24.190Z,2.96
2015-09-12T01:11:36.659Z,2.95
2015-09-12T01:11:49.050Z,2.98
2015-09-12T01:12:01.458Z,2.9
2015-09-12T01:12:13.849Z,2.99
2015-09-12T01:12:26.239Z,2.91
2015-09-12T01:12:38.646Z,3.01
2015-09-12T01:12:51.052Z,2.95
2015-09-12T01:13:03.444Z,2.91
2015-09-12T01:13:15.851Z,2.88
2015-09-12T01:13:28.241Z,2.91
2015-09-12T01:13:40.507Z,2.9
2015-09-12T01:13:52.913Z,2.93
2015-09-12T01:14:05.321Z,2.9
2015-09-12T01:14:17.712Z,2.96
2015-09-12T01:14:30.103Z,2.91
2015-09-12T01:14:42.509Z,2.9
2015-09-12T01:14:54.915Z,2.93
2015-09-12T01:15:07.323Z,2.91
2015-09-12T01:15:19.730Z,2.91
2015-09-12T01:15:32.152Z,2.84
2015-09-12T01:15:44.589Z,2.91
2015-09-12T01:15:56.995Z,2.95
2015-09-12T01:16:09.450Z,2.91
2015-09-12T01:16:21.872Z,2.91
2015-09-12T01:16:34.294Z,3.01
2015-09-12T01:16:46.716Z,2.93
2015-09-12T01:16:59.154Z,2.96
2015-09-12T01:17:10.843Z,2.98
2015-09-12T01:17:23.234Z,2.96
2015-09-12T01:17:35.640Z,3.01
2015-09-12T01:17:48.031Z,2.95
2015-09-12T01:18:00.437Z,2.93
2015-09-12T01:18:12.829Z,2.96
2015-09-12T01:18:25.236Z,2.93
2015-09-12T01:18:37.642Z,2.96
2015-09-12T01:18:50.033Z,2.96
2015-09-12T01:19:02.439Z,2.95
2015-09-12T01:19:14.847Z,2.98
2015-09-12T01:19:27.238Z,2.96
2015-09-12T01:19:39.644Z,2.88
2015-09-12T01:19:52.050Z,2.87
2015-09-12T01:20:04.456Z,2.91
2015-09-12T01:20:16.880Z,2.91
2015-09-12T01:20:29.287Z,2.95
2015-09-12T01:20:41.693Z,2.91
2015-09-12T01:20:54.115Z,2.88
2015-09-12T01:21:06.521Z,2.91
2015-09-12T01:21:18.945Z,2.91
2015-09-12T01:21:31.382Z,2.91
2015-09-12T01:21:43.804Z,2.87
2015-09-12T01:21:56.195Z,2.87
2015-09-12T01:22:08.585Z,2.87
2015-09-12T01:22:20.994Z,2.84
2015-09-12T01:22:33.384Z,2.9
2015-09-12T01:22:45.775Z,2.9
2015-09-12T01:22:58.181Z,2.9
2015-09-12T01:23:10.587Z,2.91
2015-09-12T01:23:22.996Z,2.87
2015-09-12T01:23:35.386Z,2.87
2015-09-12T01:23:47.793Z,2.85
2015-09-12T01:24:00.214Z,2.84
2015-09-12T01:24:12.621Z,2.87
2015-09-12T01:24:25.029Z,2.85
2015-09-12T01:24:37.451Z,2.87
2015-09-12T01:24:49.873Z,2.9
2015-09-12T01:25:02.295Z,2.85
2015-09-12T01:25:14.716Z,2.85
2015-09-12T01:25:27.156Z,2.87
2015-09-12T01:25:39.593Z,2.9
2015-09-12T01:25:52.015Z,2.87
2015-09-12T01:26:04.484Z,2.88
2015-09-12T01:26:16.906Z,2.88
2015-09-12T01:26:29.377Z,2.81
2015-09-12T01:26:41.767Z,2.93
2015-09-12T01:26:54.158Z,2.85
2015-09-12T01:27:06.549Z,2.98
2015-09-12T01:27:18.955Z,2.99
2015-09-12T01:27:31.347Z,2.98
2015-09-12T01:27:43.738Z,2.96
2015-09-12T01:27:56.129Z,2.95
2015-09-12T01:28:08.504Z,2.98
2015-09-12T01:28:20.894Z,2.96
2015-09-12T01:28:33.287Z,2.98
2015-09-12T01:28:45.709Z,2.99
2015-09-12T01:28:58.099Z,2.87
2015-09-12T01:29:10.506Z,2.9
2015-09-12T01:29:22.896Z,2.93
2015-09-12T01:29:35.500Z,2.88
2015-09-12T01:29:48.125Z,2.96
2015-09-12T01:30:00.703Z,2.96
2015-09-12T01:30:12.844Z,3.01
2015-09-12T01:30:24.953Z,2.88
2015-09-12T01:30:37.314Z,2.93
2015-09-12T01:30:49.939Z,2.99
2015-09-12T01:31:04.299Z,3.01
2015-09-12T01:31:17.142Z,2.87
2015-09-12T01:31:29.908Z,2.93
2015-09-12T01:31:42.643Z,3.01
2015-09-12T01:31:55.331Z,2.93
2015-09-12T01:32:08.143Z,2.91
2015-09-12T01:32:26.284Z,2.95
2015-09-12T01:32:39.565Z,2.96
2015-09-12T01:32:54.398Z,2.93
2015-09-12T01:33:07.570Z,2.93
2015-09-12T01:33:20.180Z,3.01
2015-09-12T01:33:32.852Z,2.9
2015-09-12T01:33:45.307Z,2.98
2015-09-12T01:33:57.744Z,3.01
2015-09-12T01:34:10.416Z,2.96
2015-09-12T01:34:23.150Z,2.96
2015-09-12T01:34:36.432Z,2.93
2015-09-12T01:34:49.496Z,3.03
2015-09-12T01:35:02.293Z,2.95
2015-09-12T01:35:14.949Z,2.9
2015-09-12T01:35:27.590Z,2.93
2015-09-12T01:35:40.152Z,2.91
2015-09-12T01:35:52.967Z,2.96
2015-09-12T01:36:05.420Z,2.95
2015-09-12T01:36:17.873Z,2.96
2015-09-12T01:36:30.326Z,3.01
2015-09-12T01:36:42.920Z,2.91
2015-09-12T01:36:55.406Z,2.9
2015-09-12T01:37:07.828Z,3.03
2015-09-12T01:37:20.328Z,2.95
2015-09-12T01:37:32.020Z,2.98
2015-09-12T01:37:44.410Z,3.01
2015-09-12T01:37:56.818Z,2.95
2015-09-12T01:38:09.224Z,3.02
2015-09-12T01:38:21.630Z,3.05
2015-09-12T01:38:34.052Z,3.03
2015-09-12T01:38:46.458Z,3.02
2015-09-12T01:38:58.852Z,3.05
2015-09-12T01:39:11.242Z,3.05
2015-09-12T01:39:23.664Z,2.95
2015-09-12T01:39:36.055Z,3.05
2015-09-12T01:39:48.446Z,2.95
2015-09-12T01:40:00.854Z,2.95
2015-09-12T01:40:13.244Z,3.08
2015-09-12T01:40:25.651Z,2.95
2015-09-12T01:40:38.088Z,2.95
2015-09-12T01:40:50.494Z,2.99
2015-09-12T01:41:02.918Z,2.99
2015-09-12T01:41:15.325Z,3.02
2015-09-12T01:41:27.731Z,2.95
2015-09-12T01:41:40.184Z,3.01
2015-09-12T01:41:52.510Z,3.03
2015-09-12T01:42:04.917Z,2.95
2015-09-12T01:42:17.324Z,3.02
2015-09-12T01:42:29.714Z,3.02
2015-09-12T01:42:42.121Z,3.05
2015-09-12T01:42:54.558Z,3.06
2015-09-12T01:43:06.966Z,3.02
2015-09-12T01:43:19.201Z,2.99
2015-09-12T01:43:31.623Z,3.11
2015-09-12T01:43:44.029Z,3.05
2015-09-12T01:43:56.435Z,3.05
2015-09-12T01:44:08.156Z,3.06
2015-09-12T01:44:20.593Z,3.02
2015-09-12T01:44:33.015Z,3.06
2015-09-12T01:44:45.421Z,3.05
2015-09-12T01:44:57.843Z,3.05
2015-09-12T01:45:10.284Z,3.02
2015-09-12T01:45:22.581Z,3.08
2015-09-12T01:45:35.049Z,3.02
2015-09-12T01:45:47.487Z,3.13
2015-09-12T01:45:59.924Z,3.05
2015-09-12T01:46:12.380Z,3.08
2015-09-12T01:46:24.801Z,3.06
2015-09-12T01:46:37.239Z,3.06
2015-09-12T01:46:49.645Z,3.02
2015-09-12T01:47:02.036Z,2.98
2015-09-12T01:47:14.443Z,3.01
2015-09-12T01:47:26.834Z,3.02
2015-09-12T01:47:39.240Z,3.02
2015-09-12T01:47:51.646Z,2.96
2015-09-12T01:48:04.052Z,2.99
2015-09-12T01:48:16.461Z,2.91
2015-09-12T01:48:28.867Z,2.95
2015-09-12T01:48:41.258Z,2.98
2015-09-12T01:48:53.664Z,2.95
2015-09-12T01:49:06.367Z,2.96
2015-09-12T01:49:18.995Z,2.96
2015-09-12T01:49:31.386Z,3.01
2015-09-12T01:49:43.792Z,3.06
2015-09-12T01:49:56.214Z,3.05
2015-09-12T01:50:08.620Z,3.06
2015-09-12T01:50:21.043Z,2.9
2015-09-12T01:50:33.465Z,3.03
2015-09-12T01:50:45.918Z,3.02
2015-09-12T01:50:58.137Z,2.99
2015-09-12T01:51:10.543Z,2.99
2015-09-12T01:51:23.015Z,3.03
2015-09-12T01:51:35.327Z,2.95
2015-09-12T01:51:47.671Z,2.99
2015-09-12T01:52:00.171Z,3.01
2015-09-12T01:52:12.436Z,2.93
2015-09-12T01:52:24.797Z,3.05
2015-09-12T01:52:37.266Z,2.95
2015-09-12T01:52:50.560Z,3.01
2015-09-12T01:53:02.967Z,2.99
2015-09-12T01:53:15.373Z,3.05
2015-09-12T01:53:27.782Z,3.01
2015-09-12T01:53:40.173Z,2.88
2015-09-12T01:53:52.579Z,2.96
2015-09-12T01:54:04.970Z,3.01
2015-09-12T01:54:17.376Z,2.95
2015-09-12T01:54:29.769Z,2.91
2015-09-12T01:54:42.175Z,2.93
2015-09-12T01:54:54.586Z,2.93
2015-09-12T01:55:06.977Z,2.9
2015-09-12T01:55:19.383Z,2.98
2015-09-12T01:55:31.774Z,3.02
2015-09-12T01:55:44.196Z,2.93
2015-09-12T01:55:56.603Z,2.93
2015-09-12T01:56:09.024Z,2.93
2015-09-12T01:56:20.712Z,2.9
2015-09-12T01:56:33.137Z,3.01
2015-09-12T01:56:45.559Z,2.96
2015-09-12T01:56:57.996Z,2.9
2015-09-12T01:57:10.418Z,2.91
2015-09-12T01:57:22.856Z,2.9
2015-09-12T01:57:35.263Z,2.91
2015-09-12T01:57:47.653Z,2.91
2015-09-12T01:58:00.060Z,2.91
2015-09-12T01:58:12.466Z,2.99
2015-09-12T01:58:24.872Z,2.96
2015-09-12T01:58:37.296Z,2.93
2015-09-12T01:58:49.702Z,2.91
2015-09-12T01:59:02.109Z,2.95
2015-09-12T01:59:14.499Z,2.93
2015-09-12T01:59:26.937Z,2.95
2015-09-12T01:59:39.361Z,2.99
2015-09-12T01:59:51.767Z,2.9
2015-09-12T02:00:04.173Z,2.93
2015-09-12T02:00:16.579Z,2.98
2015-09-12T02:00:29.032Z,2.91
2015-09-12T02:00:41.472Z,2.9
2015-09-12T02:00:53.894Z,2.91
2015-09-12T02:01:06.347Z,2.96
2015-09-12T02:01:18.784Z,2.87
2015-09-12T02:01:31.238Z,2.91
2015-09-12T02:01:43.677Z,2.91
2015-09-12T02:01:56.115Z,2.9
2015-09-12T02:02:08.521Z,2.93
2015-09-12T02:02:20.911Z,2.96
2015-09-12T02:02:33.318Z,2.96
2015-09-12T02:02:45.726Z,2.96
2015-09-12T02:02:58.117Z,3.01
2015-09-12T02:03:10.523Z,2.99
2015-09-12T02:03:22.929Z,2.91
2015-09-12T02:03:35.320Z,2.96
2015-09-12T02:03:47.713Z,2.93
2015-09-12T02:04:00.120Z,2.96
2015-09-12T02:04:12.526Z,3.01
2015-09-12T02:04:24.932Z,2.87
2015-09-12T02:04:37.323Z,2.99
2015-09-12T02:04:49.714Z,2.95
2015-09-12T02:05:02.121Z,2.96
2015-09-12T02:05:14.558Z,2.9
2015-09-12T02:05:26.964Z,2.9
2015-09-12T02:05:39.371Z,2.93
2015-09-12T02:05:51.779Z,3.01
2015-09-12T02:06:04.185Z,2.91
2015-09-12T02:06:16.607Z,2.95
2015-09-12T02:06:29.029Z,2.93
2015-09-12T02:06:41.451Z,2.96
2015-09-12T02:06:53.875Z,2.98
2015-09-12T02:07:06.140Z,2.99
2015-09-12T02:07:18.578Z,2.96
2015-09-12T02:07:31.015Z,2.93
2015-09-12T02:07:43.484Z,2.96
2015-09-12T02:07:55.877Z,2.91
2015-09-12T02:08:08.267Z,2.93
2015-09-12T02:08:20.580Z,2.98
2015-09-12T02:08:32.986Z,2.98
2015-09-12T02:08:45.392Z,2.91
2015-09-12T02:08:57.816Z,2.9
2015-09-12T02:09:10.222Z,2.93
2015-09-12T02:09:22.629Z,2.93
2015-09-12T02:09:35.035Z,2.98
2015-09-12T02:09:47.504Z,2.87
2015-09-12T02:09:59.927Z,2.93
2015-09-12T02:10:12.349Z,2.96
2015-09-12T02:10:24.771Z,2.98
2015-09-12T02:10:37.209Z,2.96
2015-09-12T02:10:49.646Z,2.91
2015-09-12T02:11:02.086Z,2.96
2015-09-12T02:11:13.820Z,2.93
2015-09-12T02:11:26.226Z,2.95
2015-09-12T02:11:38.617Z,2.98
2015-09-12T02:11:51.008Z,2.91
2015-09-12T02:12:03.416Z,2.9
2015-09-12T02:12:15.806Z,2.95
2015-09-12T02:12:28.213Z,2.93
2015-09-12T02:12:40.619Z,2.96
2015-09-12T02:12:53.025Z,2.88
2015-09-12T02:13:05.418Z,2.96
2015-09-12T02:13:17.808Z,2.96
2015-09-12T02:13:30.215Z,2.91
2015-09-12T02:13:42.621Z,2.91
2015-09-12T02:13:55.012Z,2.91
2015-09-12T02:14:07.420Z,2.88
2015-09-12T02:14:19.123Z,2.93
2015-09-12T02:14:31.545Z,2.91
2015-09-12T02:14:43.951Z,2.99
2015-09-12T02:14:56.357Z,2.93
2015-09-12T02:15:08.766Z,2.96
2015-09-12T02:15:21.187Z,2.91
2015-09-12T02:15:33.625Z,2.91
2015-09-12T02:15:46.062Z,2.91
2015-09-12T02:15:58.484Z,2.96
2015-09-12T02:16:10.924Z,2.93
2015-09-12T02:16:23.377Z,2.96
2015-09-12T02:16:35.814Z,3.05
2015-09-12T02:16:48.252Z,2.93
2015-09-12T02:17:00.674Z,2.93
2015-09-12T02:17:12.395Z,2.98
2015-09-12T02:17:24.801Z,2.91
2015-09-12T02:17:37.191Z,2.91
2015-09-12T02:17:49.598Z,2.96
2015-09-12T02:18:02.020Z,2.9
2015-09-12T02:18:14.428Z,2.87
2015-09-12T02:18:26.834Z,3.01
2015-09-12T02:18:39.256Z,2.91
2015-09-12T02:18:51.647Z,2.93
2015-09-12T02:19:04.053Z,3.01
2015-09-12T02:19:16.477Z,2.93
2015-09-12T02:19:28.867Z,2.96
2015-09-12T02:19:41.274Z,2.98
2015-09-12T02:19:53.664Z,2.93
2015-09-12T02:20:06.070Z,2.96
2015-09-12T02:20:18.494Z,3.01
2015-09-12T02:20:30.916Z,2.96
2015-09-12T02:20:43.322Z,2.96
2015-09-12T02:20:55.729Z,2.93
2015-09-12T02:21:08.135Z,2.98
2015-09-12T02:21:20.574Z,2.9
2015-09-12T02:21:33.012Z,2.93
2015-09-12T02:21:45.449Z,2.96
2015-09-12T02:21:57.887Z,2.87
2015-09-12T02:22:10.309Z,2.96
2015-09-12T02:22:22.764Z,3.01
2015-09-12T02:22:35.201Z,2.87
2015-09-12T02:22:47.623Z,2.96
2015-09-12T02:23:00.030Z,2.96
2015-09-12T02:23:12.420Z,2.96
2015-09-12T02:23:24.812Z,2.95
2015-09-12T02:23:37.234Z,2.98
2015-09-12T02:23:49.640Z,2.87
2015-09-12T02:24:02.046Z,2.98
2015-09-12T02:24:14.437Z,2.91
2015-09-12T02:24:26.846Z,2.96
2015-09-12T02:24:39.237Z,2.9
2015-09-12T02:24:51.643Z,2.93
2015-09-12T02:25:04.065Z,2.93
2015-09-12T02:25:16.455Z,2.9
2015-09-12T02:25:28.864Z,2.96
2015-09-12T02:25:41.254Z,2.96
2015-09-12T02:25:53.661Z,2.98
2015-09-12T02:26:06.051Z,2.91
2015-09-12T02:26:18.473Z,2.88
2015-09-12T02:26:30.881Z,2.99
2015-09-12T02:26:43.288Z,2.98
2015-09-12T02:26:55.709Z,2.93
2015-09-12T02:27:08.131Z,2.99
2015-09-12T02:27:20.553Z,2.96
2015-09-12T02:27:33.007Z,2.91
2015-09-12T02:27:45.429Z,2.93
2015-09-12T02:27:57.867Z,2.95
2015-09-12T02:28:10.273Z,2.99
2015-09-12T02:28:22.695Z,2.93
2015-09-12T02:28:35.087Z,2.96
2015-09-12T02:28:47.494Z,2.9
2015-09-12T02:28:59.884Z,2.99
2015-09-12T02:29:12.291Z,3.01
2015-09-12T02:29:24.556Z,2.98
2015-09-12T02:29:36.950Z,2.91
2015-09-12T02:29:49.387Z,2.98
2015-09-12T02:30:01.637Z,2.98
2015-09-12T02:30:14.028Z,3.01
2015-09-12T02:30:26.450Z,2.91
2015-09-12T02:30:38.858Z,2.96
2015-09-12T02:30:51.249Z,2.88
2015-09-12T02:31:03.655Z,2.96
2015-09-12T02:31:16.046Z,3.01
2015-09-12T02:31:28.467Z,2.96
2015-09-12T02:31:40.876Z,2.98
2015-09-12T02:31:53.298Z,2.96
2015-09-12T02:32:05.704Z,2.91
2015-09-12T02:32:18.126Z,2.91
2015-09-12T02:32:30.563Z,2.91
2015-09-12T02:32:42.987Z,2.96
2015-09-12T02:32:55.425Z,2.93
2015-09-12T02:33:07.846Z,2.93
2015-09-12T02:33:20.284Z,2.9
2015-09-12T02:33:32.721Z,2.96
2015-09-12T02:33:45.161Z,2.95
2015-09-12T02:33:57.614Z,2.95
2015-09-12T02:34:10.005Z,2.93
2015-09-12T02:34:22.411Z,2.93
2015-09-12T02:34:34.817Z,2.88
2015-09-12T02:34:47.210Z,2.93
2015-09-12T02:34:59.600Z,2.91
2015-09-12T02:35:12.007Z,2.95
2015-09-12T02:35:24.413Z,2.95
2015-09-12T02:35:36.819Z,3.02
2015-09-12T02:35:49.212Z,3.03
2015-09-12T02:36:01.618Z,2.9
2015-09-12T02:36:14.009Z,2.95
2015-09-12T02:36:26.415Z,3.05
2015-09-12T02:36:38.806Z,2.98
2015-09-12T02:36:51.214Z,3.03
2015-09-12T02:37:03.604Z,2.95
2015-09-12T02:37:16.026Z,3.05
2015-09-12T02:37:28.448Z,3.01
2015-09-12T02:37:40.854Z,2.99
2015-09-12T02:37:53.262Z,2.95
2015-09-12T02:38:05.684Z,3.05
2015-09-12T02:38:18.105Z,3.06
2015-09-12T02:38:30.559Z,3.06
2015-09-12T02:38:42.996Z,3.06
2015-09-12T02:38:55.405Z,3.13
2015-09-12T02:39:07.796Z,3.08
2015-09-12T02:39:20.202Z,3.08
2015-09-12T02:39:32.593Z,3.06
2015-09-12T02:39:44.999Z,3.11
2015-09-12T02:39:57.391Z,3.03
2015-09-12T02:40:09.797Z,3.08
2015-09-12T02:40:22.203Z,3.08
2015-09-12T02:40:34.594Z,3.11
2015-09-12T02:40:47.000Z,3.06
2015-09-12T02:40:59.424Z,3.03
2015-09-12T02:41:11.846Z,2.98
2015-09-12T02:41:24.252Z,3.03
2015-09-12T02:41:36.674Z,3.06
2015-09-12T02:41:49.096Z,2.98
2015-09-12T02:42:01.520Z,3.05
2015-09-12T02:42:13.957Z,3.02
2015-09-12T02:42:26.379Z,3.11
2015-09-12T02:42:38.817Z,3.08
2015-09-12T02:42:51.238Z,2.93
2015-09-12T02:43:03.678Z,3.03
2015-09-12T02:43:16.115Z,3.02
2015-09-12T02:43:28.537Z,3.05
2015-09-12T02:43:40.975Z,3.03
2015-09-12T02:43:53.365Z,3.05
2015-09-12T02:44:05.774Z,3.11
2015-09-12T02:44:18.164Z,3.05
2015-09-12T02:44:30.821Z,3.06
2015-09-12T02:44:43.211Z,3.02
2015-09-12T02:44:55.617Z,3.03
2015-09-12T02:45:07.995Z,3.06
2015-09-12T02:45:20.386Z,3.08
2015-09-12T02:45:32.777Z,3.06
2015-09-12T02:45:45.183Z,2.98